Time;durP1;ratioP1;P1;durP2;ratioP2;P2;SDS_P1;SDS_P2;PMS_P1;PMS_P2;Temp;Humidity;BMP_temperature;BMP_pressure;BME280_temperature;BME280_humidity;BME280_pressure;Samples;Min_cycle;Max_cycle;Signal;HPM_P1;HPM_P2
2024/03/23 00:02:20;;;;;;;0.30;0.30;;;6.10;99.90;;;;;;4933457;28;20133;-74
2024/03/23 00:04:47;;;;;;;0.50;0.50;;;5.60;99.90;;;;;;4931526;29;20095;-73
2024/03/23 00:07:13;;;;;;;0.40;0.40;;;5.60;99.90;;;;;;4930642;28;20075;-73
2024/03/23 00:09:42;;;;;;;0.40;0.40;;;5.60;99.90;;;;;;4943244;28;20031;-73
2024/03/23 00:12:12;;;;;;;0.50;0.50;;;5.60;99.90;;;;;;4941279;28;20481;-73
2024/03/23 00:14:38;;;;;;;0.55;0.55;;;5.60;99.90;;;;;;4944997;28;20055;-73
2024/03/23 00:17:05;;;;;;;0.52;0.52;;;5.60;99.90;;;;;;4936538;28;20039;-73
2024/03/23 00:19:32;;;;;;;1.90;1.88;;;5.60;99.90;;;;;;4943340;28;20042;-73
2024/03/23 00:21:58;;;;;;;0.70;0.70;;;5.50;99.90;;;;;;4937170;28;20122;-73
2024/03/23 00:24:25;;;;;;;0.55;0.55;;;5.50;99.90;;;;;;4928532;28;20597;-73
2024/03/23 00:26:52;;;;;;;0.60;0.60;;;5.50;99.90;;;;;;4929011;28;20039;-74
2024/03/23 00:29:19;;;;;;;0.50;0.50;;;5.50;99.90;;;;;;4942247;28;20052;-74
2024/03/23 00:31:46;;;;;;;0.93;0.93;;;5.50;99.90;;;;;;4917372;28;20047;-73
2024/03/23 00:34:12;;;;;;;0.50;0.50;;;6.20;99.90;;;;;;4920786;29;20075;-73
2024/03/23 00:36:39;;;;;;;0.60;0.60;;;5.40;99.90;;;;;;4934705;28;20091;-73
2024/03/23 00:39:08;;;;;;;0.47;0.47;;;5.40;99.90;;;;;;4938788;28;20065;-73
2024/03/23 00:41:35;;;;;;;0.70;0.70;;;5.30;99.90;;;;;;4919603;28;20507;-73
2024/03/23 00:44:01;;;;;;;0.50;0.50;;;5.30;99.90;;;;;;4932840;29;20050;-74
2024/03/23 00:46:28;;;;;;;22.70;3.42;;;5.20;99.90;;;;;;4930123;29;20035;-73
2024/03/23 00:48:54;;;;;;;0.55;0.55;;;5.20;99.90;;;;;;4948493;28;20062;-73
2024/03/23 00:51:21;;;;;;;0.60;0.60;;;5.50;99.90;;;;;;4924504;29;20047;-74
2024/03/23 00:53:47;;;;;;;0.40;0.40;;;5.10;99.90;;;;;;4929522;28;20044;-74
2024/03/23 00:56:13;;;;;;;0.52;0.52;;;5.00;99.90;;;;;;4925284;29;20527;-85
2024/03/23 00:58:39;;;;;;;0.70;0.70;;;5.00;99.90;;;;;;4923805;29;20052;-85
2024/03/23 01:01:04;;;;;;;0.50;0.50;;;5.00;99.90;;;;;;4928488;28;20036;-85
2024/03/23 01:03:30;;;;;;;0.60;0.60;;;5.00;99.90;;;;;;4934348;29;20066;-86
2024/03/23 01:06:03;;;;;;;0.60;0.60;;;4.90;99.90;;;;;;4930129;28;20069;-85
2024/03/23 01:08:29;;;;;;;0.50;0.50;;;4.80;99.90;;;;;;4918908;29;20050;-85
2024/03/23 01:11:02;;;;;;;0.50;0.50;;;4.80;99.90;;;;;;4930254;29;20039;-85
2024/03/23 01:13:28;;;;;;;0.60;0.60;;;4.70;99.90;;;;;;4929287;28;20126;-85
2024/03/23 01:15:55;;;;;;;1.08;1.08;;;5.30;99.90;;;;;;4950348;28;20054;-87
2024/03/23 01:18:22;;;;;;;0.50;0.50;;;4.70;99.90;;;;;;4933250;28;20075;-87
2024/03/23 01:20:48;;;;;;;0.80;0.80;;;4.70;99.90;;;;;;4937528;29;20046;-86
2024/03/23 01:23:14;;;;;;;0.50;0.50;;;4.70;99.90;;;;;;4937209;28;20427;-86
2024/03/23 01:25:40;;;;;;;0.98;0.98;;;4.70;99.90;;;;;;4930847;29;20121;-86
2024/03/23 01:28:06;;;;;;;0.40;0.40;;;4.60;99.90;;;;;;4925111;29;20125;-86
2024/03/23 01:30:35;;;;;;;0.50;0.50;;;4.60;99.90;;;;;;4930673;28;20031;-84
2024/03/23 01:33:02;;;;;;;0.50;0.50;;;4.60;99.90;;;;;;4936594;29;20055;-86
2024/03/23 01:35:28;;;;;;;0.50;0.50;;;4.60;99.90;;;;;;4938078;28;20055;-83
2024/03/23 01:37:54;;;;;;;0.50;0.50;;;4.80;99.90;;;;;;4925700;28;20047;-86
2024/03/23 01:40:20;;;;;;;0.50;0.50;;;4.50;99.90;;;;;;4938833;28;20047;-85
2024/03/23 01:43:07;;;;;;;0.70;0.70;;;4.50;99.90;;;;;;4943082;28;20039;-86
2024/03/23 01:45:34;;;;;;;0.52;0.52;;;4.50;99.90;;;;;;4929287;28;20035;-85
2024/03/23 01:48:00;;;;;;;0.98;0.98;;;4.50;99.90;;;;;;4912366;28;20118;-85
2024/03/23 01:50:27;;;;;;;0.50;0.50;;;4.50;99.90;;;;;;4934207;29;20482;-84
2024/03/23 01:52:53;;;;;;;0.70;0.70;;;4.50;99.90;;;;;;4933949;28;20118;-85
2024/03/23 01:55:20;;;;;;;0.60;0.60;;;4.40;99.90;;;;;;4918667;28;20472;-85
2024/03/23 01:57:45;;;;;;;0.57;0.57;;;4.50;99.90;;;;;;4934913;28;20586;-85
2024/03/23 02:00:12;;;;;;;1.90;1.25;;;4.50;99.90;;;;;;4924102;28;20134;-83
2024/03/23 02:02:47;;;;;;;2.10;0.82;;;4.50;99.90;;;;;;4906213;29;20062;-84
2024/03/23 02:05:13;;;;;;;0.63;0.63;;;4.40;99.90;;;;;;4924405;28;20038;-84
2024/03/23 02:07:40;;;;;;;0.70;0.70;;;4.40;99.90;;;;;;4929382;29;20516;-74
2024/03/23 02:10:10;;;;;;;2.00;1.90;;;4.30;99.90;;;;;;4914380;28;20506;-74
2024/03/23 02:12:36;;;;;;;0.60;0.60;;;4.30;99.90;;;;;;4941439;28;20054;-74
2024/03/23 02:15:03;;;;;;;0.63;0.63;;;4.30;99.90;;;;;;4930839;28;20122;-74
2024/03/23 02:17:32;;;;;;;0.50;0.50;;;4.20;99.90;;;;;;4930718;28;20502;-74
2024/03/23 02:19:57;;;;;;;0.65;0.65;;;4.20;99.90;;;;;;4930506;29;20083;-74
2024/03/23 02:22:23;;;;;;;0.55;0.55;;;4.20;99.90;;;;;;4928891;28;20075;-73
2024/03/23 02:24:49;;;;;;;0.40;0.40;;;4.30;99.90;;;;;;4912821;28;20039;-74
2024/03/23 02:27:14;;;;;;;0.70;0.70;;;4.30;99.90;;;;;;4933434;28;20039;-73
2024/03/23 02:29:40;;;;;;;0.57;0.57;;;4.30;99.90;;;;;;4922552;28;20039;-73
2024/03/23 02:32:06;;;;;;;0.70;0.70;;;4.40;99.90;;;;;;4918947;29;20078;-74
2024/03/23 02:34:31;;;;;;;0.75;0.75;;;4.40;99.90;;;;;;4920306;29;20058;-74
2024/03/23 02:36:57;;;;;;;0.70;0.70;;;4.90;99.90;;;;;;4934768;29;20062;-74
2024/03/23 02:39:23;;;;;;;0.60;0.60;;;4.40;99.90;;;;;;4909081;29;20529;-74
2024/03/23 02:41:48;;;;;;;0.50;0.50;;;4.40;99.90;;;;;;4923066;28;20087;-73
2024/03/23 02:44:14;;;;;;;0.47;0.47;;;4.40;99.90;;;;;;4926017;29;20050;-73
2024/03/23 02:46:40;;;;;;;0.75;0.75;;;5.20;99.90;;;;;;4926527;28;20050;-73
2024/03/23 02:49:06;;;;;;;0.60;0.60;;;4.90;99.90;;;;;;4931298;28;20043;-74
2024/03/23 02:51:31;;;;;;;0.60;0.60;;;5.20;99.90;;;;;;4928117;29;20102;-74
2024/03/23 02:53:57;;;;;;;0.70;0.70;;;4.40;99.90;;;;;;4910886;29;20483;-74
2024/03/23 02:56:23;;;;;;;0.60;0.60;;;4.50;99.90;;;;;;4932506;28;20458;-74
2024/03/23 02:58:49;;;;;;;0.70;0.70;;;4.40;99.90;;;;;;4939795;29;20068;-74
2024/03/23 03:01:14;;;;;;;0.68;0.68;;;4.40;99.90;;;;;;4924395;29;20047;-74
2024/03/23 03:03:40;;;;;;;0.45;0.45;;;4.40;99.90;;;;;;4907181;28;20083;-73
2024/03/23 03:06:06;;;;;;;0.80;0.80;;;4.50;99.90;;;;;;4910124;28;20047;-73
2024/03/23 03:08:31;;;;;;;1.38;0.95;;;5.40;99.90;;;;;;4927681;29;20046;-73
2024/03/23 03:10:57;;;;;;;0.60;0.60;;;4.40;99.90;;;;;;4921371;28;20078;-73
2024/03/23 03:13:23;;;;;;;4.28;1.83;;;4.40;99.90;;;;;;4922108;28;20043;-73
2024/03/23 03:15:48;;;;;;;0.88;0.88;;;4.30;99.90;;;;;;4922654;28;20490;-73
2024/03/23 03:18:14;;;;;;;0.45;0.45;;;4.20;99.90;;;;;;4915566;28;20110;-73
2024/03/23 03:20:40;;;;;;;0.75;0.75;;;4.20;99.90;;;;;;4924450;29;20070;-73
2024/03/23 03:23:07;;;;;;;0.70;0.70;;;4.70;99.90;;;;;;4930074;29;20435;-73
2024/03/23 03:25:32;;;;;;;0.52;0.52;;;4.30;99.90;;;;;;4924075;28;20093;-73
2024/03/23 03:27:58;;;;;;;0.65;0.65;;;4.50;99.90;;;;;;4909225;29;20079;-73
2024/03/23 03:30:24;;;;;;;;;;;4.20;99.90;;;;;;4922200;28;20044;-73
2024/03/23 03:32:55;;;;;;;0.60;0.60;;;4.20;99.90;;;;;;4945322;28;19926;-73
2024/03/23 03:35:20;;;;;;;0.75;0.75;;;4.20;99.90;;;;;;4924498;28;20047;-73
2024/03/23 03:37:46;;;;;;;1.15;1.15;;;4.10;99.90;;;;;;4917065;28;20035;-73
2024/03/23 03:40:14;;;;;;;0.70;0.70;;;4.00;99.90;;;;;;4925153;29;20047;-73
2024/03/23 03:42:40;;;;;;;0.57;0.57;;;4.00;99.90;;;;;;4926482;28;20050;-73
2024/03/23 03:45:06;;;;;;;;;;;4.10;99.90;;;;;;4934465;28;20115;-73
2024/03/23 03:47:32;;;;;;;0.60;0.60;;;3.90;99.90;;;;;;4921232;28;20456;-73
2024/03/23 03:49:58;;;;;;;0.73;0.73;;;3.80;99.90;;;;;;4929335;28;20154;-73
2024/03/23 03:52:23;;;;;;;0.60;0.60;;;3.90;99.90;;;;;;4924005;29;20049;-73
2024/03/23 03:54:49;;;;;;;0.55;0.55;;;3.80;99.90;;;;;;4926816;28;20053;-73
2024/03/23 03:57:15;;;;;;;0.60;0.60;;;3.80;99.90;;;;;;4939735;28;20058;-73
2024/03/23 03:59:40;;;;;;;0.52;0.52;;;3.70;99.90;;;;;;4929640;29;20058;-73
2024/03/23 04:02:06;;;;;;;0.65;0.65;;;4.00;99.90;;;;;;4943075;28;20057;-73
2024/03/23 04:04:32;;;;;;;1.80;1.77;;;4.20;99.90;;;;;;4943759;28;20138;-73
2024/03/23 04:07:02;;;;;;;1.02;1.02;;;3.60;99.90;;;;;;4942749;28;20054;-73
2024/03/23 04:09:28;;;;;;;1.08;1.08;;;3.70;99.90;;;;;;4938048;28;20111;-74
2024/03/23 04:11:53;;;;;;;0.50;0.50;;;3.60;99.90;;;;;;4945508;28;20139;-74
2024/03/23 04:14:19;;;;;;;0.70;0.70;;;4.00;99.90;;;;;;4922209;28;20043;-73
2024/03/23 04:16:45;;;;;;;0.60;0.60;;;3.60;99.90;;;;;;4930709;29;20036;-74
2024/03/23 04:19:10;;;;;;;0.60;0.60;;;3.60;99.90;;;;;;4960102;28;20058;-74
2024/03/23 04:21:37;;;;;;;0.35;0.35;;;3.50;99.90;;;;;;4943871;28;20039;-74
2024/03/23 04:24:04;;;;;;;0.60;0.60;;;3.50;99.90;;;;;;4948479;28;20039;-73
2024/03/23 04:26:29;;;;;;;0.45;0.45;;;3.50;99.90;;;;;;4933162;28;20074;-74
2024/03/23 04:28:55;;;;;;;0.55;0.55;;;3.80;99.90;;;;;;4930722;28;20498;-73
2024/03/23 04:31:21;;;;;;;0.80;0.80;;;3.50;99.90;;;;;;4948092;28;20055;-73
2024/03/23 04:33:47;;;;;;;0.70;0.70;;;3.50;99.90;;;;;;4947116;28;20093;-73
2024/03/23 04:36:13;;;;;;;0.70;0.70;;;3.50;99.90;;;;;;4940758;28;20126;-73
2024/03/23 04:38:38;;;;;;;0.85;0.85;;;3.60;99.90;;;;;;4927261;28;20151;-74
2024/03/23 04:41:04;;;;;;;0.60;0.60;;;3.40;99.90;;;;;;4926628;29;20491;-73
2024/03/23 04:43:30;;;;;;;0.75;0.75;;;3.50;99.90;;;;;;4952947;28;20047;-73
2024/03/23 04:45:56;;;;;;;0.50;0.50;;;3.50;99.90;;;;;;4932433;28;20126;-73
2024/03/23 04:48:22;;;;;;;0.60;0.60;;;3.50;99.90;;;;;;4951438;28;20522;-73
2024/03/23 04:50:49;;;;;;;0.60;0.60;;;4.10;99.90;;;;;;4944220;28;20122;-73
2024/03/23 04:53:15;;;;;;;0.65;0.65;;;3.60;99.90;;;;;;4942959;28;20043;-74
2024/03/23 04:55:42;;;;;;;0.60;0.60;;;3.60;99.90;;;;;;4931384;28;20047;-73
2024/03/23 04:58:08;;;;;;;0.50;0.50;;;3.70;99.90;;;;;;4954024;28;20406;-73
2024/03/23 05:00:34;;;;;;;0.60;0.60;;;3.70;99.90;;;;;;4950657;28;20138;-74
2024/03/23 05:02:59;;;;;;;0.55;0.55;;;3.70;99.90;;;;;;4955973;28;20125;-74
2024/03/23 05:05:25;;;;;;;3.28;0.63;;;3.70;99.90;;;;;;4939813;28;20043;-73
2024/03/23 05:07:51;;;;;;;0.50;0.50;;;3.70;99.90;;;;;;4946821;28;20039;-71
2024/03/23 05:10:16;;;;;;;0.65;0.65;;;3.70;99.90;;;;;;4946475;28;20047;-73
2024/03/23 05:12:42;;;;;;;0.60;0.60;;;3.80;99.90;;;;;;4942291;28;20134;-73
2024/03/23 05:15:08;;;;;;;0.60;0.60;;;3.80;99.90;;;;;;4928341;28;20047;-73
2024/03/23 05:17:34;;;;;;;1.40;1.40;;;3.80;99.90;;;;;;4943765;28;20460;-73
2024/03/23 05:20:00;;;;;;;;;;;3.80;99.90;;;;;;4943477;28;20401;-73
2024/03/23 05:22:27;;;;;;;0.50;0.50;;;3.90;99.90;;;;;;4920986;28;19926;-73
2024/03/23 05:24:53;;;;;;;1.02;1.02;;;3.90;99.90;;;;;;4947217;28;20109;-73
2024/03/23 05:27:18;;;;;;;;;;;3.90;99.90;;;;;;4932272;28;20121;-73
2024/03/23 05:29:44;;;;;;;0.45;0.45;;;3.90;99.90;;;;;;4931206;28;20363;-73
2024/03/23 05:32:10;;;;;;;0.52;0.52;;;3.90;99.90;;;;;;4950670;28;20039;-73
2024/03/23 05:34:35;;;;;;;1.30;1.20;;;3.90;99.90;;;;;;4947741;28;20055;-73
2024/03/23 05:37:01;;;;;;;0.60;0.60;;;3.90;99.90;;;;;;4939839;28;20047;-83
2024/03/23 05:39:27;;;;;;;0.57;0.57;;;3.80;99.90;;;;;;4945391;28;20353;-84
2024/03/23 05:41:53;;;;;;;0.68;0.68;;;3.80;99.90;;;;;;4930012;29;20054;-82
2024/03/23 05:44:18;;;;;;;0.60;0.60;;;3.80;99.90;;;;;;4944193;28;20046;-82
2024/03/23 05:46:48;;;;;;;0.50;0.50;;;3.80;99.90;;;;;;4953547;28;20509;-82
2024/03/23 05:49:14;;;;;;;2.35;2.15;;;3.80;99.90;;;;;;4925315;28;20034;-82
2024/03/23 05:51:39;;;;;;;0.60;0.60;;;4.20;99.90;;;;;;4947878;28;20031;-82
2024/03/23 05:54:05;;;;;;;3.80;3.33;;;3.80;99.90;;;;;;4932052;28;20409;-81
2024/03/23 05:56:31;;;;;;;0.60;0.60;;;3.90;99.90;;;;;;4953710;28;20054;-81
2024/03/23 05:58:57;;;;;;;0.70;0.70;;;4.00;99.90;;;;;;4939248;28;20085;-82
2024/03/23 06:01:23;;;;;;;0.50;0.50;;;4.70;99.90;;;;;;4927717;29;20074;-82
2024/03/23 06:03:48;;;;;;;0.47;0.47;;;4.20;99.90;;;;;;4931305;28;20043;-83
2024/03/23 06:06:14;;;;;;;0.52;0.52;;;4.40;99.90;;;;;;4927058;28;20051;-83
2024/03/23 06:08:40;;;;;;;0.55;0.55;;;4.90;99.90;;;;;;4941844;28;20075;-83
2024/03/23 06:11:06;;;;;;;0.70;0.70;;;4.70;99.90;;;;;;4939908;28;20035;-83
2024/03/23 06:13:33;;;;;;;0.60;0.60;;;4.80;99.90;;;;;;4925011;28;20122;-83
2024/03/23 06:16:00;;;;;;;0.50;0.50;;;4.90;99.90;;;;;;4932519;28;20117;-82
2024/03/23 06:18:26;;;;;;;0.50;0.50;;;5.00;99.90;;;;;;4926865;28;20469;-82
2024/03/23 06:20:51;;;;;;;;;;;5.10;99.90;;;;;;4900705;29;20043;-83
2024/03/23 06:23:19;;;;;;;0.57;0.57;;;5.70;99.90;;;;;;4932814;29;19969;-82
2024/03/23 06:25:45;;;;;;;1.20;1.20;;;5.20;99.90;;;;;;4912255;29;20052;-84
2024/03/23 06:28:11;;;;;;;0.65;0.65;;;5.10;99.90;;;;;;4937768;28;20043;-84
2024/03/23 06:30:37;;;;;;;0.55;0.55;;;5.10;99.90;;;;;;4915664;28;20412;-84
2024/03/23 06:33:03;;;;;;;0.60;0.60;;;5.40;99.90;;;;;;4914887;28;20465;-84
2024/03/23 06:35:28;;;;;;;0.60;0.60;;;5.00;99.90;;;;;;4948508;28;20046;-83
2024/03/23 06:37:54;;;;;;;1.77;1.67;;;5.70;99.90;;;;;;4932563;28;20046;-83
2024/03/23 06:40:20;;;;;;;0.70;0.70;;;5.40;99.90;;;;;;4912705;29;20086;-85
2024/03/23 06:42:45;;;;;;;0.88;0.88;;;5.00;99.90;;;;;;4923928;28;20109;-83
2024/03/23 06:45:11;;;;;;;0.60;0.60;;;5.00;99.90;;;;;;4920629;29;20043;-82
2024/03/23 06:47:37;;;;;;;0.52;0.52;;;5.00;99.90;;;;;;4927742;28;20040;-73
2024/03/23 06:50:04;;;;;;;0.55;0.55;;;5.10;99.90;;;;;;4905306;29;20031;-73
2024/03/23 06:52:30;;;;;;;0.60;0.60;;;5.10;99.90;;;;;;4940010;28;20047;-73
2024/03/23 06:54:57;;;;;;;0.40;0.40;;;5.20;99.90;;;;;;4926631;28;20039;-73
2024/03/23 06:57:23;;;;;;;0.70;0.70;;;5.30;99.90;;;;;;4925612;28;20050;-73
2024/03/23 06:59:49;;;;;;;0.55;0.55;;;5.40;99.90;;;;;;4906369;28;20551;-73
2024/03/23 07:02:16;;;;;;;0.85;0.85;;;5.70;99.90;;;;;;4902802;28;20104;-73
2024/03/23 07:04:41;;;;;;;0.50;0.50;;;5.80;99.90;;;;;;4921618;28;20056;-73
2024/03/23 07:07:07;;;;;;;0.50;0.50;;;5.80;99.90;;;;;;4940227;28;20042;-73
2024/03/23 07:09:33;;;;;;;0.60;0.60;;;5.80;99.90;;;;;;4925946;29;20470;-73
2024/03/23 07:11:59;;;;;;;0.50;0.50;;;5.70;99.90;;;;;;4910040;28;20418;-73
2024/03/23 07:14:24;;;;;;;0.60;0.60;;;5.70;99.90;;;;;;4942920;28;20035;-73
2024/03/23 07:16:50;;;;;;;0.45;0.45;;;5.80;99.90;;;;;;4922912;29;20046;-73
2024/03/23 07:19:17;;;;;;;1.02;0.93;;;5.90;99.90;;;;;;4926632;28;20039;-73
2024/03/23 07:21:43;;;;;;;1.30;1.30;;;6.10;99.90;;;;;;4941803;28;20235;-73
2024/03/23 07:24:09;;;;;;;;;;;7.00;99.90;;;;;;4911868;28;20508;-73
2024/03/23 07:26:35;;;;;;;0.50;0.50;;;6.10;99.90;;;;;;4924846;28;19926;-72
2024/03/23 07:29:01;;;;;;;0.40;0.40;;;6.10;99.90;;;;;;4938379;28;20486;-72
2024/03/23 07:31:27;;;;;;;0.50;0.50;;;5.90;99.90;;;;;;4942425;28;20414;-73
2024/03/23 07:33:54;;;;;;;0.60;0.60;;;5.70;99.90;;;;;;4925577;29;20091;-72
2024/03/23 07:36:19;;;;;;;0.60;0.60;;;5.60;99.90;;;;;;4942580;28;20445;-73
2024/03/23 07:38:45;;;;;;;0.55;0.55;;;5.50;99.90;;;;;;4925207;28;20090;-73
2024/03/23 07:41:14;;;;;;;1.25;1.25;;;5.40;99.90;;;;;;4929100;28;20090;-73
2024/03/23 07:43:42;;;;;;;0.57;0.57;;;5.50;99.90;;;;;;4926198;28;20051;-73
2024/03/23 07:46:08;;;;;;;0.50;0.50;;;5.60;99.90;;;;;;4934905;29;20076;-73
2024/03/23 07:48:34;;;;;;;1.05;1.05;;;5.90;99.90;;;;;;4923859;28;20039;-73
2024/03/23 07:51:21;;;;;;;0.60;0.60;;;5.70;99.90;;;;;;4924596;29;20086;-73
2024/03/23 07:53:48;;;;;;;0.50;0.50;;;5.80;99.90;;;;;;4944010;28;20402;-72
2024/03/23 07:56:15;;;;;;;0.60;0.60;;;5.90;99.90;;;;;;4927686;29;20043;-73
2024/03/23 07:58:41;;;;;;;0.50;0.50;;;6.00;99.90;;;;;;4927233;28;20081;-83
2024/03/23 08:01:11;;;;;;;;;;;6.20;99.90;;;;;;4930049;28;20048;-83
2024/03/23 08:03:38;;;;;;;0.60;0.60;;;6.40;99.90;;;;;;4934567;28;19922;-81
2024/03/23 08:06:11;;;;;;;0.50;0.50;;;6.60;99.90;;;;;;4928259;28;20130;-80
2024/03/23 08:08:37;;;;;;;1.35;0.63;;;6.90;99.90;;;;;;4919758;29;20039;-81
2024/03/23 08:11:03;;;;;;;0.47;0.47;;;7.20;99.90;;;;;;4923677;28;20035;-82
2024/03/23 08:13:29;;;;;;;1.13;1.13;;;7.20;99.90;;;;;;4924694;29;21151;-82
2024/03/23 08:15:59;;;;;;;0.90;0.90;;;7.00;99.90;;;;;;4924259;28;20048;-83
2024/03/23 08:18:25;;;;;;;0.50;0.50;;;6.90;99.90;;;;;;4925643;29;20043;-81
2024/03/23 08:21:05;;;;;;;0.40;0.40;;;6.60;99.90;;;;;;4920929;29;20384;-81
2024/03/23 08:23:38;;;;;;;0.30;0.30;;;6.40;99.90;;;;;;4919383;28;20110;-81
2024/03/23 08:26:09;;;;;;;0.40;0.40;;;6.10;99.90;;;;;;4929605;28;20043;-83
2024/03/23 08:28:35;;;;;;;0.50;0.50;;;6.60;99.90;;;;;;4939300;28;20558;-83
2024/03/23 08:31:03;;;;;;;0.45;0.45;;;6.00;99.90;;;;;;4923122;28;20044;-83
2024/03/23 08:33:30;;;;;;;0.50;0.50;;;6.00;99.90;;;;;;4938467;28;20043;-81
2024/03/23 08:36:00;;;;;;;0.43;0.43;;;6.00;99.90;;;;;;4925978;29;20464;-81
2024/03/23 08:38:27;;;;;;;0.50;0.50;;;6.50;99.90;;;;;;4921789;28;20098;-80
2024/03/23 08:41:03;;;;;;;0.50;0.50;;;6.20;99.90;;;;;;4921149;29;20039;-79
2024/03/23 08:43:30;;;;;;;0.50;0.50;;;6.40;99.90;;;;;;4917193;28;20075;-84
2024/03/23 08:46:13;;;;;;;0.30;0.30;;;6.60;99.90;;;;;;4911720;29;20081;-82
2024/03/23 08:48:43;;;;;;;0.35;0.35;;;6.70;99.90;;;;;;4913205;28;20171;-83
2024/03/23 08:51:09;;;;;;;1.15;1.15;;;6.80;99.90;;;;;;4930403;28;20055;-83
2024/03/23 08:53:36;;;;;;;0.40;0.40;;;7.30;99.90;;;;;;4922163;28;20199;-85
2024/03/23 08:56:03;;;;;;;0.50;0.50;;;7.00;99.90;;;;;;4911853;28;20394;-85
2024/03/23 08:58:30;;;;;;;0.50;0.50;;;7.10;99.90;;;;;;4939802;28;20082;-82
2024/03/23 09:01:02;;;;;;;0.60;0.60;;;7.20;99.90;;;;;;4923158;28;20927;-81
2024/03/23 09:03:28;;;;;;;0.45;0.45;;;7.40;99.90;;;;;;4927580;28;20054;-82
2024/03/23 09:05:55;;;;;;;0.40;0.40;;;7.60;99.90;;;;;;4937852;28;20039;-82
2024/03/23 09:08:20;;;;;;;0.65;0.65;;;8.40;99.90;;;;;;4935574;28;20048;-73
2024/03/23 09:10:47;;;;;;;0.40;0.40;;;8.10;99.90;;;;;;4925299;28;20046;-73
2024/03/23 09:13:13;;;;;;;0.50;0.50;;;8.30;99.90;;;;;;4923852;28;20051;-73
2024/03/23 09:15:47;;;;;;;0.57;0.57;;;8.40;99.90;;;;;;4937962;28;20051;-73
2024/03/23 09:18:12;;;;;;;0.45;0.45;;;8.30;99.90;;;;;;4942831;28;20043;-74
2024/03/23 09:20:38;;;;;;;0.57;0.57;;;8.40;99.90;;;;;;4936336;28;20066;-73
2024/03/23 09:23:04;;;;;;;0.50;0.50;;;;;;;;;;4936525;28;20406;-73
2024/03/23 09:25:30;;;;;;;0.43;0.43;;;8.70;99.90;;;;;;4943761;28;20039;-73
2024/03/23 09:27:56;;;;;;;0.40;0.40;;;9.10;99.90;;;;;;4916408;28;20137;-74
2024/03/23 09:30:22;;;;;;;0.30;0.30;;;;;;;;;;4941746;28;20448;-74
2024/03/23 09:32:48;;;;;;;0.50;0.50;;;8.80;99.90;;;;;;4937196;28;20554;-74
2024/03/23 09:35:13;;;;;;;0.30;0.30;;;8.50;99.90;;;;;;4923532;29;20043;-74
2024/03/23 09:37:42;;;;;;;0.57;0.57;;;8.00;99.90;;;;;;4937397;28;20046;-72
2024/03/23 09:40:11;;;;;;;0.50;0.50;;;7.30;99.90;;;;;;4943278;28;20039;-72
2024/03/23 09:42:37;;;;;;;0.55;0.55;;;6.70;99.90;;;;;;4941846;28;20165;-72
2024/03/23 09:45:06;;;;;;;0.60;0.60;;;6.30;99.90;;;;;;4937451;28;20125;-72
2024/03/23 09:47:33;;;;;;;0.50;0.50;;;6.10;99.90;;;;;;4936408;28;20040;-72
2024/03/23 09:50:00;;;;;;;0.40;0.40;;;5.90;99.90;;;;;;4917900;29;20458;-72
2024/03/23 09:52:26;;;;;;;0.50;0.50;;;5.90;99.90;;;;;;4944327;28;20395;-72
2024/03/23 09:54:52;;;;;;;0.60;0.60;;;6.60;99.90;;;;;;4930249;28;20053;-72
2024/03/23 09:57:17;;;;;;;1.48;1.38;;;6.00;99.90;;;;;;4940075;28;20070;-72
2024/03/23 09:59:43;;;;;;;0.50;0.50;;;6.00;99.90;;;;;;4939882;28;20114;-72
2024/03/23 10:02:10;;;;;;;0.50;0.50;;;6.10;99.90;;;;;;4935435;28;20126;-72
2024/03/23 10:04:41;;;;;;;0.50;0.50;;;6.10;99.90;;;;;;4925334;29;20044;-72
2024/03/23 10:07:14;;;;;;;0.50;0.50;;;6.10;99.90;;;;;;4908729;28;20058;-72
2024/03/23 10:09:40;;;;;;;0.43;0.43;;;6.20;99.90;;;;;;4940092;28;20051;-72
2024/03/23 10:12:13;;;;;;;;;;;6.30;99.90;;;;;;4936976;28;20644;-71
2024/03/23 10:14:43;;;;;;;0.55;0.55;;;6.50;99.90;;;;;;4945675;28;20455;-72
2024/03/23 10:17:24;;;;;;;0.50;0.50;;;6.80;99.90;;;;;;4930510;28;20050;-72
2024/03/23 10:19:52;;;;;;;0.50;0.50;;;7.00;99.90;;;;;;4935879;28;20053;-80
2024/03/23 10:22:26;;;;;;;0.50;0.50;;;7.30;99.90;;;;;;4962863;28;20035;-81
2024/03/23 10:24:53;;;;;;;0.60;0.60;;;7.40;99.90;;;;;;4914590;28;20046;-80
2024/03/23 10:27:21;;;;;;;0.50;0.50;;;7.50;99.90;;;;;;4944879;28;20044;-80
2024/03/23 10:29:48;;;;;;;0.47;0.47;;;8.20;99.90;;;;;;4946048;28;20039;-80
2024/03/23 10:32:16;;;;;;;1.65;0.70;;;8.00;99.90;;;;;;4941758;28;20118;-80
2024/03/23 10:34:41;;;;;;;0.68;0.68;;;8.20;99.90;;;;;;4936535;29;20039;-81
2024/03/23 10:37:08;;;;;;;0.63;0.63;;;8.60;99.90;;;;;;4934846;28;20036;-81
2024/03/23 10:39:38;;;;;;;0.30;0.30;;;8.70;99.90;;;;;;4941068;28;20510;-82
2024/03/23 10:42:10;;;;;;;0.85;0.85;;;8.60;99.90;;;;;;4949873;28;20043;-82
2024/03/23 10:44:36;;;;;;;0.20;0.20;;;8.50;99.90;;;;;;4944775;28;20039;-81
2024/03/23 10:47:03;;;;;;;0.50;0.50;;;8.40;99.90;;;;;;4943858;28;20536;-82
2024/03/23 10:49:30;;;;;;;0.47;0.47;;;8.60;99.90;;;;;;4926797;28;20054;-82
2024/03/23 10:52:00;;;;;;;0.40;0.40;;;8.80;99.90;;;;;;4936586;28;20043;-82
2024/03/23 10:54:27;;;;;;;0.38;0.38;;;9.00;99.90;;;;;;4936314;28;20038;-81
2024/03/23 10:57:14;;;;;;;3.25;3.08;;;9.30;99.90;;;;;;4942678;28;20390;-83
2024/03/23 10:59:40;;;;;;;0.50;0.50;;;9.50;99.90;;;;;;4931259;28;20517;-80
2024/03/23 11:02:09;;;;;;;0.40;0.40;;;9.60;99.90;;;;;;4952752;28;20038;-82
2024/03/23 11:04:38;;;;;;;0.50;0.50;;;9.50;99.90;;;;;;4942446;28;20051;-81
2024/03/23 11:07:24;;;;;;;0.60;0.60;;;9.10;99.90;;;;;;4939821;28;20142;-81
2024/03/23 11:09:53;;;;;;;0.38;0.38;;;8.60;99.90;;;;;;4945019;28;20041;-82
2024/03/23 11:12:25;;;;;;;0.30;0.30;;;8.00;99.90;;;;;;4953759;28;20034;-81
2024/03/23 11:14:55;;;;;;;0.43;0.43;;;7.40;99.90;;;;;;4943617;28;20053;-82
2024/03/23 11:17:22;;;;;;;0.50;0.50;;;7.80;99.90;;;;;;4943785;28;20057;-82
2024/03/23 11:19:58;;;;;;;0.55;0.55;;;6.90;99.90;;;;;;4950536;28;20517;-83
2024/03/23 11:22:43;;;;;;;0.43;0.43;;;7.00;99.90;;;;;;4947844;28;20057;-81
2024/03/23 11:25:20;;;;;;;0.77;0.77;;;7.10;99.90;;;;;;4947735;28;20198;-82
2024/03/23 11:27:47;;;;;;;0.50;0.50;;;7.40;99.90;;;;;;4953644;28;20038;-82
2024/03/23 11:30:15;;;;;;;0.50;0.50;;;7.40;99.90;;;;;;4940487;28;20043;-82
2024/03/23 11:32:45;;;;;;;0.50;0.50;;;7.70;99.90;;;;;;4949754;28;20126;-82
2024/03/23 11:35:24;;;;;;;0.55;0.55;;;7.90;99.90;;;;;;4941663;28;20059;-82
2024/03/23 11:38:05;;;;;;;0.52;0.52;;;8.70;99.90;;;;;;4938136;28;20404;-73
2024/03/23 11:40:31;;;;;;;1.55;1.55;;;8.30;99.90;;;;;;4959569;28;20057;-72
2024/03/23 11:43:03;;;;;;;0.40;0.40;;;8.50;99.90;;;;;;4941335;28;20038;-73
2024/03/23 11:45:33;;;;;;;0.40;0.40;;;8.60;99.90;;;;;;4933991;28;20416;-73
2024/03/23 11:48:10;;;;;;;0.40;0.40;;;8.70;99.90;;;;;;4940494;28;20047;-72
2024/03/23 11:50:41;;;;;;;0.40;0.40;;;8.60;99.90;;;;;;4945997;28;20071;-72
2024/03/23 11:53:22;;;;;;;0.35;0.35;;;8.50;99.90;;;;;;4951960;28;20417;-73
2024/03/23 11:55:48;;;;;;;0.32;0.32;;;8.30;99.90;;;;;;4944008;28;20047;-73
2024/03/23 11:58:14;;;;;;;0.30;0.30;;;8.20;99.90;;;;;;4933142;28;20059;-73
2024/03/23 12:00:40;;;;;;;0.40;0.40;;;8.10;99.90;;;;;;4927454;28;20122;-73
2024/03/23 12:03:06;;;;;;;0.43;0.43;;;8.00;99.90;;;;;;4940717;28;20596;-73
2024/03/23 12:05:32;;;;;;;;;;;8.30;99.90;;;;;;4925994;29;20532;-72
2024/03/23 12:08:21;;;;;;;0.50;0.50;;;7.90;99.90;;;;;;4944196;28;19965;-73
2024/03/23 12:10:52;;;;;;;0.60;0.60;;;7.90;99.90;;;;;;4948097;28;20050;-72
2024/03/23 12:13:19;;;;;;;0.68;0.68;;;7.60;99.90;;;;;;4930012;28;20530;-72
2024/03/23 12:15:46;;;;;;;0.43;0.43;;;7.60;99.90;;;;;;4947311;28;20077;-73
2024/03/23 12:18:12;;;;;;;0.60;0.60;;;7.50;99.90;;;;;;4948941;28;20490;-72
2024/03/23 12:20:38;;;;;;;0.52;0.52;;;7.60;99.90;;;;;;4948221;28;20148;-73
2024/03/23 12:23:11;;;;;;;0.47;0.47;;;7.40;99.90;;;;;;4952098;28;20109;-73
2024/03/23 12:25:39;;;;;;;0.55;0.55;;;7.10;99.90;;;;;;4937445;29;20058;-73
2024/03/23 12:28:08;;;;;;;0.57;0.57;;;7.10;99.90;;;;;;4935699;28;20050;-72
2024/03/23 12:30:36;;;;;;;0.40;0.40;;;6.20;99.90;;;;;;4935197;28;20050;-72
2024/03/23 12:33:03;;;;;;;0.40;0.40;;;6.20;99.90;;;;;;4938827;28;20065;-72
2024/03/23 12:35:28;;;;;;;0.40;0.40;;;6.00;99.90;;;;;;4938952;28;20051;-72
2024/03/23 12:37:54;;;;;;;0.40;0.40;;;6.40;99.90;;;;;;4945864;28;20039;-72
2024/03/23 12:40:20;;;;;;;0.50;0.50;;;5.90;99.90;;;;;;4938714;28;20470;-72
2024/03/23 12:42:45;;;;;;;0.50;0.50;;;6.00;99.90;;;;;;4948745;28;20133;-72
2024/03/23 12:45:11;;;;;;;0.60;0.60;;;6.30;99.90;;;;;;4928459;28;20039;-72
2024/03/23 12:47:37;;;;;;;0.35;0.35;;;6.20;99.90;;;;;;4944892;28;20137;-72
2024/03/23 12:50:03;;;;;;;0.40;0.40;;;6.70;99.90;;;;;;4928601;28;20047;-84
2024/03/23 12:52:29;;;;;;;0.38;0.38;;;7.10;99.90;;;;;;4941859;28;20047;-82
2024/03/23 12:54:58;;;;;;;0.93;0.93;;;7.50;99.90;;;;;;4949352;28;20433;-85
2024/03/23 12:57:27;;;;;;;0.50;0.50;;;7.70;99.90;;;;;;4936384;28;20433;-84
2024/03/23 12:59:53;;;;;;;0.40;0.40;;;7.40;99.90;;;;;;4952603;28;20043;-85
2024/03/23 13:02:22;;;;;;;0.70;0.70;;;7.00;99.90;;;;;;4946775;28;20047;-84